THY56 LTFM-WIII
Flight info
| Callsign | THY56 |
|---|---|
| Flight time | N/A |
| Altitude | 37000 |
| Route | EKAWE1E/36 EKAWE UT643 GAKSU UT310 SIN UN644 KARDE UL851 TBN UM11 REBLO DCT MATAL T916 SUBUT T923 ERLEV M11 RODAR A909 LEMOD N644 REGET G325 ZB G202 RK P628 IBANI L510 GIVAL P628 VPL Y503 RINBA Y507 MITOS M630 BOBAG P501 ANITO B470 BUNIK |
| Aircraft | A359/H-SDE2E3GHIJ3J4J5LM1ORWXY/LB1D1 |
Departure
| Time | N/A |
|---|---|
| Airport | İstanbul Airport (LTFM) |
Arrival
| Time | 2026-05-03 20:15 |
|---|---|
| Airport | Soekarno-Hatta International Airport (WIII) |
| Time | Latitude | Longitude | Altitude | Speed | Heading |
|---|---|---|---|---|---|
| 2026-05-03 20:15 | -6.13409 | 106.66276 | 46 ft | 0 kts | 38° |
| 2026-05-03 20:24 | -6.13408 | 106.66276 | 46 ft | 2 kts | 38° |
| 2026-05-03 20:25 | -6.13386 | 106.66294 | 46 ft | 6 kts | 38° |
| 2026-05-03 20:25 | -6.13342 | 106.66323 | 46 ft | 8 kts | 23° |
| 2026-05-03 20:25 | -6.13304 | 106.66308 | 43 ft | 6 kts | 314° |
| 2026-05-03 20:25 | -6.13287 | 106.66262 | 45 ft | 8 kts | 268° |
| 2026-05-03 20:26 | -6.13304 | 106.66218 | 45 ft | 5 kts | 227° |
| 2026-05-03 20:26 | -6.13334 | 106.66181 | 45 ft | 8 kts | 241° |
| 2026-05-03 20:26 | -6.13339 | 106.66169 | 45 ft | 0 kts | 246° |
| 2026-05-03 20:32 | -6.13344 | 106.66158 | 45 ft | 11 kts | 246° |
| 2026-05-03 20:33 | -6.13352 | 106.66139 | 45 ft | 0 kts | 248° |
| 2026-05-03 20:37 | -6.13352 | 106.66138 | 45 ft | 0 kts | 248° |
| 2026-05-03 20:37 | -6.13353 | 106.66135 | 45 ft | 4 kts | 248° |
| 2026-05-03 20:38 | -6.13366 | 106.66103 | 45 ft | 6 kts | 248° |
| 2026-05-03 20:38 | -6.13386 | 106.66052 | 45 ft | 9 kts | 248° |
| 2026-05-03 20:38 | -6.13414 | 106.65982 | 44 ft | 12 kts | 248° |
| 2026-05-03 20:38 | -6.13448 | 106.65895 | 44 ft | 13 kts | 248° |
| 2026-05-03 20:39 | -6.13453 | 106.65884 | 44 ft | 0 kts | 248° |
| 2026-05-03 20:48 | -6.13446 | 106.65874 | 44 ft | 8 kts | 309° |
| 2026-05-03 20:48 | -6.13392 | 106.65853 | 44 ft | 0 kts | 338° |
| 2026-05-03 20:49 | -6.13386 | 106.65851 | 44 ft | 8 kts | 338° |
| 2026-05-03 20:50 | -6.13326 | 106.65802 | 44 ft | 9 kts | 286° |
| 2026-05-03 20:50 | -6.13337 | 106.65743 | 44 ft | 9 kts | 248° |
| 2026-05-03 20:50 | -6.13363 | 106.65676 | 44 ft | 12 kts | 248° |
| 2026-05-03 20:50 | -6.13410 | 106.65638 | 44 ft | 9 kts | 194° |
| 2026-05-03 20:51 | -6.13462 | 106.65606 | 44 ft | 9 kts | 230° |
| 2026-05-03 20:51 | -6.13493 | 106.65541 | 44 ft | 12 kts | 248° |
| 2026-05-03 20:51 | -6.13527 | 106.65456 | 42 ft | 14 kts | 248° |
| 2026-05-03 20:51 | -6.13544 | 106.65413 | 44 ft | 4 kts | 248° |
| 2026-05-03 20:52 | -6.13559 | 106.65375 | 45 ft | 8 kts | 248° |
| 2026-05-03 20:52 | -6.13583 | 106.65315 | 45 ft | 11 kts | 248° |
| 2026-05-03 20:52 | -6.13588 | 106.65302 | 45 ft | 0 kts | 248° |
| 2026-05-03 20:52 | -6.13594 | 106.65286 | 45 ft | 6 kts | 248° |
| 2026-05-03 20:53 | -6.13613 | 106.65241 | 45 ft | 8 kts | 248° |
| 2026-05-03 20:53 | -6.13638 | 106.65177 | 45 ft | 11 kts | 248° |
| 2026-05-03 20:53 | -6.13651 | 106.65145 | 45 ft | 3 kts | 248° |
| 2026-05-03 20:53 | -6.13663 | 106.65113 | 45 ft | 7 kts | 248° |
| 2026-05-03 20:54 | -6.13683 | 106.65062 | 45 ft | 9 kts | 251° |
| 2026-05-03 20:54 | -6.13638 | 106.65010 | 45 ft | 7 kts | 331° |
| 2026-05-03 20:54 | -6.13626 | 106.65004 | 45 ft | 0 kts | 331° |
| 2026-05-03 20:55 | -6.13580 | 106.64992 | 45 ft | 17 kts | 343° |
| 2026-05-03 20:55 | -6.13494 | 106.64959 | 44 ft | 11 kts | 339° |
| 2026-05-03 20:55 | -6.13413 | 106.64927 | 44 ft | 14 kts | 338° |
| 2026-05-03 20:56 | -6.13314 | 106.64888 | 44 ft | 16 kts | 338° |
| 2026-05-03 20:56 | -6.13201 | 106.64842 | 44 ft | 19 kts | 338° |
| 2026-05-03 20:56 | -6.13076 | 106.64795 | 48 ft | 18 kts | 338° |
| 2026-05-03 20:56 | -6.12975 | 106.64753 | 55 ft | 16 kts | 338° |
| 2026-05-03 20:57 | -6.12878 | 106.64713 | 54 ft | 19 kts | 338° |
| 2026-05-03 20:57 | -6.12738 | 106.64659 | 44 ft | 6 kts | 354° |
| 2026-05-03 20:57 | -6.12729 | 106.64662 | 44 ft | 9 kts | 12° |
| 2026-05-03 20:57 | -6.12680 | 106.64713 | 44 ft | 7 kts | 72° |
| 2026-05-03 20:58 | -6.12662 | 106.64770 | 44 ft | 10 kts | 69° |
| 2026-05-03 20:58 | -6.12642 | 106.64819 | 44 ft | 0 kts | 68° |
| 2026-05-03 21:03 | -6.12637 | 106.64832 | 44 ft | 5 kts | 67° |
| 2026-05-03 21:03 | -6.12611 | 106.64856 | 44 ft | 6 kts | 23° |
| 2026-05-03 21:04 | -6.12567 | 106.64877 | 44 ft | 8 kts | 39° |
| 2026-05-03 21:04 | -6.12532 | 106.64923 | 44 ft | 8 kts | 56° |
| 2026-05-03 21:04 | -6.12524 | 106.64934 | 44 ft | 0 kts | 56° |
| 2026-05-03 21:04 | -6.12520 | 106.64941 | 44 ft | 0 kts | 56° |
| 2026-05-03 21:05 | -6.12519 | 106.64941 | 44 ft | 0 kts | 56° |
| 2026-05-03 21:05 | -6.12513 | 106.64951 | 44 ft | 3 kts | 55° |
| 2026-05-03 21:05 | -6.12498 | 106.64972 | 44 ft | 0 kts | 55° |
| 2026-05-03 21:06 | -6.12498 | 106.64973 | 44 ft | 1 kts | 54° |
| 2026-05-03 21:06 | -6.12493 | 106.64979 | 44 ft | 1 kts | 54° |
| 2026-05-03 21:06 | -6.12489 | 106.64985 | 44 ft | 0 kts | 54° |
| 2026-05-03 21:07 | -6.12487 | 106.64988 | 44 ft | 0 kts | 54° |
| 2026-05-03 21:07 | -6.12486 | 106.64989 | 44 ft | 0 kts | 54° |
| 2026-05-03 21:07 | -6.12485 | 106.64990 | 44 ft | 0 kts | 54° |
| 2026-05-03 21:08 | -6.12484 | 106.64991 | 44 ft | 0 kts | 54° |
| 2026-05-03 21:08 | -6.12484 | 106.64992 | 42 ft | 0 kts | 54° |